createdAt,value
2022-07-29T00:02:55.650Z,101176.38
2022-07-29T00:07:53.391Z,101160.56
2022-07-29T00:12:50.616Z,101183.63
2022-07-29T00:17:49.185Z,101207.69
2022-07-29T00:22:46.630Z,101206.53
2022-07-29T00:27:43.741Z,101183.63
2022-07-29T00:32:43.626Z,101166.13
2022-07-29T00:37:42.086Z,101192.88
2022-07-29T00:42:47.240Z,101150.25
2022-07-29T00:47:44.606Z,101131.72
2022-07-29T00:52:44.213Z,101192.13
2022-07-29T00:57:42.643Z,101194.31
2022-07-29T01:02:40.411Z,101165.91
2022-07-29T01:07:39.684Z,101186.53
2022-07-29T01:12:47.628Z,101129.91
2022-07-29T01:17:53.447Z,101108.97
2022-07-29T01:23:34.587Z,101198.72
2022-07-29T01:29:07.414Z,101190.63
2022-07-29T01:34:25.044Z,101147.78
2022-07-29T01:39:28.202Z,101080.19
2022-07-29T01:44:33.416Z,101178.50
2022-07-29T01:49:41.262Z,101135.97
2022-07-29T01:54:53.044Z,101141.19
2022-07-29T01:59:52.853Z,101083.97
2022-07-29T02:04:51.459Z,101078.75
2022-07-29T02:09:52.523Z,101143.00
2022-07-29T02:14:53.850Z,101156.44
2022-07-29T02:19:52.789Z,101158.66
2022-07-29T02:24:52.263Z,101140.19
2022-07-29T02:29:54.288Z,101184.44
2022-07-29T02:34:57.219Z,101173.28
2022-07-29T02:39:56.322Z,101194.63
2022-07-29T02:44:56.587Z,101192.97
2022-07-29T02:49:58.778Z,101192.16
2022-07-29T02:55:03.080Z,101135.66
2022-07-29T03:00:05.582Z,101203.09
2022-07-29T03:05:14.301Z,101209.63
2022-07-29T03:10:13.690Z,101181.50
2022-07-29T03:15:12.355Z,101177.38
2022-07-29T03:20:12.425Z,101220.47
2022-07-29T03:25:12.677Z,101222.78
2022-07-29T03:30:14.762Z,101224.69
2022-07-29T03:35:27.378Z,101212.47
2022-07-29T03:40:28.731Z,101191.66
2022-07-29T03:45:30.218Z,101204.16
2022-07-29T03:50:31.679Z,101145.47
2022-07-29T03:55:33.966Z,101185.13
2022-07-29T04:00:34.061Z,101189.13
2022-07-29T04:05:31.078Z,101241.66
2022-07-29T04:10:32.073Z,101238.59
2022-07-29T04:15:32.110Z,101205.53
2022-07-29T04:20:29.274Z,101190.53
2022-07-29T04:25:26.310Z,101247.88
2022-07-29T04:30:34.229Z,101153.94
2022-07-29T04:35:38.035Z,101163.41
2022-07-29T04:40:42.276Z,101198.59
2022-07-29T04:45:43.305Z,101253.50
2022-07-29T04:50:41.492Z,101178.19
2022-07-29T04:55:39.248Z,101231.81
2022-07-29T05:00:38.189Z,101226.22
2022-07-29T05:05:39.980Z,101222.69
2022-07-29T05:10:38.554Z,101212.75
2022-07-29T05:15:36.233Z,101227.25
2022-07-29T05:20:34.792Z,101234.81
2022-07-29T05:25:43.703Z,101252.00
2022-07-29T05:30:47.665Z,101243.22
2022-07-29T05:35:47.242Z,101273.09
2022-07-29T05:41:10.914Z,101247.84
2022-07-29T05:46:17.384Z,101268.97
2022-07-29T05:51:14.683Z,101266.41
2022-07-29T05:56:17.070Z,101265.78
2022-07-29T06:01:14.257Z,101243.88
2022-07-29T06:06:11.528Z,101258.16
2022-07-29T06:11:09.085Z,101250.94
2022-07-29T06:16:09.189Z,101203.50
2022-07-29T06:21:09.565Z,101261.97
2022-07-29T06:26:09.298Z,101239.09
2022-07-29T06:31:10.294Z,101247.47
2022-07-29T06:36:11.511Z,101221.84
2022-07-29T06:41:16.332Z,101238.00
2022-07-29T06:46:17.973Z,101241.66
2022-07-29T06:51:22.918Z,101250.78
2022-07-29T06:56:20.624Z,101274.22
2022-07-29T07:01:18.645Z,101206.88
2022-07-29T07:06:16.029Z,101270.41
2022-07-29T07:11:15.315Z,101243.06
2022-07-29T07:16:15.954Z,101252.47
2022-07-29T07:21:19.169Z,101223.81
2022-07-29T07:26:16.853Z,101214.22
2022-07-29T07:31:14.701Z,101234.53
2022-07-29T07:36:12.217Z,101226.59
2022-07-29T07:41:12.745Z,101241.25
2022-07-29T07:46:13.368Z,101196.28
2022-07-29T11:41:27.214Z,101014.69
2022-07-29T11:46:45.604Z,101013.97
2022-07-29T11:51:50.540Z,101018.84
2022-07-29T11:56:51.953Z,101000.50
2022-07-29T12:02:18.528Z,101031.00
2022-07-29T12:07:32.658Z,100999.88
2022-07-29T12:12:33.499Z,101023.56
2022-07-29T12:17:34.691Z,101019.69
2022-07-29T12:22:48.211Z,100970.91
2022-07-29T12:27:46.186Z,101011.56
2022-07-29T12:32:47.853Z,100973.16
2022-07-29T12:37:48.549Z,101005.47
2022-07-29T12:43:09.663Z,100971.09
2022-07-29T12:48:09.040Z,100972.22
2022-07-29T12:53:11.846Z,100907.19
2022-07-29T12:58:09.600Z,100934.19
2022-07-29T13:03:08.658Z,100964.50
2022-07-29T13:08:21.924Z,100866.94
2022-07-29T13:13:23.478Z,100936.09
2022-07-29T13:18:30.092Z,100951.34
2022-07-29T13:23:29.185Z,100950.28
2022-07-29T13:28:29.071Z,100944.53
2022-07-29T13:33:26.192Z,100926.94
2022-07-29T13:38:31.336Z,100936.31
2022-07-29T13:44:00.607Z,100861.09
2022-07-29T13:48:57.773Z,100923.75
2022-07-29T13:53:54.934Z,100896.13
2022-07-29T13:58:52.618Z,100870.13
2022-07-29T14:03:50.715Z,100838.06
2022-07-29T14:09:01.023Z,100871.88
2022-07-29T14:14:00.481Z,100881.84
2022-07-29T14:18:57.569Z,100902.16
2022-07-29T14:23:55.117Z,100893.59
2022-07-29T14:29:03.151Z,100902.88
2022-07-29T14:34:03.418Z,100899.34
2022-07-29T14:39:00.714Z,100855.53
2022-07-29T14:43:58.262Z,100871.72
2022-07-29T14:49:26.750Z,100878.78
2022-07-29T14:54:24.011Z,100876.31
2022-07-29T14:59:21.479Z,100879.88
2022-07-29T15:04:24.688Z,100911.25
2022-07-29T15:09:30.068Z,100904.09
2022-07-29T15:14:30.549Z,100895.41
2022-07-29T15:19:34.034Z,100847.19
2022-07-29T15:24:33.563Z,100886.66
2022-07-29T15:29:33.383Z,100856.97
2022-07-29T15:34:31.466Z,100775.84
2022-07-29T15:40:30.842Z,100845.06
2022-07-29T15:45:31.943Z,100857.53
2022-07-29T15:50:39.307Z,100862.75
2022-07-29T15:55:36.700Z,100810.78
2022-07-29T16:00:34.345Z,100799.81
2022-07-29T16:05:33.559Z,100852.38
2022-07-29T16:10:33.697Z,100876.97
2022-07-29T16:15:37.391Z,100854.13
2022-07-29T16:20:39.240Z,100803.06
2022-07-29T16:25:58.537Z,100789.38
2022-07-29T16:31:11.092Z,100887.16
2022-07-29T16:36:18.575Z,100890.28
2022-07-29T16:41:16.576Z,100842.88
2022-07-29T16:46:19.006Z,100900.44
2022-07-29T16:51:21.200Z,100882.41
2022-07-29T16:56:20.533Z,100882.53
2022-07-29T17:01:39.842Z,100871.31
2022-07-29T17:06:46.010Z,100868.13
2022-07-29T17:11:53.201Z,100858.19
2022-07-29T17:17:38.831Z,100903.63
2022-07-29T17:22:49.090Z,100884.31
2022-07-29T17:27:46.535Z,100881.31
2022-07-29T17:32:56.405Z,100913.94
2022-07-29T17:37:58.601Z,100898.56
2022-07-29T17:42:59.065Z,100888.22
2022-07-29T17:47:58.063Z,100928.13
2022-07-29T17:53:05.444Z,100832.47
2022-07-29T17:58:16.139Z,100929.34
2022-07-29T18:03:14.346Z,100829.28
2022-07-29T18:08:37.202Z,100837.47
2022-07-29T18:13:34.460Z,100911.56
2022-07-29T18:18:32.347Z,100939.59
2022-07-29T18:23:35.154Z,100886.63
2022-07-29T18:28:36.832Z,100940.88
2022-07-29T18:33:40.193Z,100868.03
2022-07-29T18:38:38.433Z,100917.13
2022-07-29T18:43:40.835Z,100897.16
2022-07-29T18:48:38.259Z,100909.25
2022-07-29T18:53:36.601Z,100920.13
2022-07-29T18:58:39.563Z,100886.28
2022-07-29T19:03:37.659Z,100960.22
2022-07-29T19:08:44.755Z,100916.81
2022-07-29T19:13:43.356Z,100950.66
2022-07-29T19:19:00.378Z,100983.66
2022-07-29T19:24:07.375Z,100938.47
2022-07-29T19:29:07.783Z,100967.09
2022-07-29T19:34:08.330Z,101020.78
2022-07-29T19:39:09.012Z,100994.88
2022-07-29T19:44:10.790Z,100980.28
2022-07-29T19:49:20.675Z,100957.09
2022-07-29T19:54:18.293Z,100987.41
2022-07-29T19:59:30.090Z,101018.75
2022-07-29T20:04:56.702Z,101007.47
2022-07-29T20:10:01.335Z,100956.22
2022-07-29T20:15:00.708Z,100989.44
2022-07-29T20:19:59.457Z,101024.97
2022-07-29T20:24:57.188Z,101020.56
2022-07-29T20:30:04.095Z,100940.25
2022-07-29T20:35:03.552Z,101021.78
2022-07-29T20:40:04.327Z,100991.06
2022-07-29T20:45:37.223Z,100928.75
2022-07-29T20:50:45.840Z,100939.56
2022-07-29T20:55:43.577Z,100963.34
2022-07-29T21:00:41.458Z,101006.41
2022-07-29T21:05:40.103Z,101013.28
2022-07-29T21:10:48.277Z,101009.91
2022-07-29T21:15:51.017Z,101030.34
2022-07-29T21:20:52.284Z,100983.88
2022-07-29T21:25:49.568Z,100959.75
2022-07-29T21:30:46.516Z,101048.22
2022-07-29T21:36:07.331Z,101015.94
2022-07-29T21:41:07.246Z,100951.16
2022-07-29T21:46:11.745Z,100978.59
2022-07-29T21:51:10.100Z,101017.28
2022-07-29T21:56:07.590Z,101020.81
2022-07-29T22:01:08.624Z,101055.66
2022-07-29T22:06:17.861Z,101021.53
2022-07-29T22:11:16.289Z,101007.22
2022-07-29T22:16:14.430Z,101015.31
2022-07-29T22:21:13.383Z,101064.66
2022-07-29T22:26:11.273Z,100971.50
2022-07-29T22:31:09.347Z,101037.78
2022-07-29T22:36:10.771Z,100964.91
2022-07-29T22:41:09.160Z,100956.09
2022-07-29T22:46:08.946Z,101007.66
2022-07-29T22:51:06.415Z,101029.47
2022-07-29T22:56:03.942Z,101048.53
2022-07-29T23:01:02.129Z,101012.38
2022-07-29T23:06:03.254Z,101053.69
2022-07-29T23:11:01.211Z,101005.03
2022-07-29T23:15:59.212Z,101021.22
2022-07-29T23:20:58.059Z,101035.16
2022-07-29T23:25:55.070Z,101041.88
2022-07-29T23:30:52.215Z,101030.81
2022-07-29T23:35:51.412Z,101054.00
2022-07-29T23:40:49.896Z,101011.63
2022-07-29T23:45:50.381Z,101078.41
2022-07-29T23:50:51.352Z,101075.38
2022-07-29T23:55:49.576Z,101016.44
